createdAt,value
2019-04-26T00:00:02.233Z,1.50
2019-04-26T00:02:48.210Z,1.37
2019-04-26T00:05:18.507Z,1.73
2019-04-26T00:07:48.580Z,2.00
2019-04-26T00:10:37.414Z,1.53
2019-04-26T00:13:16.156Z,2.93
2019-04-26T00:16:01.554Z,1.27
2019-04-26T00:18:31.305Z,2.80
2019-04-26T00:21:00.985Z,3.43
2019-04-26T00:23:30.708Z,1.30
2019-04-26T00:26:00.833Z,1.00
2019-04-26T00:28:30.883Z,1.00
2019-04-26T00:31:00.552Z,1.03
2019-04-26T00:33:30.225Z,0.90
2019-04-26T00:35:59.912Z,2.00
2019-04-26T00:38:29.569Z,2.07
2019-04-26T00:41:00.051Z,1.17
2019-04-26T00:43:30.093Z,1.87
2019-04-26T00:46:01.772Z,1.43
2019-04-26T00:48:32.816Z,1.63
2019-04-26T00:51:04.139Z,3.90
2019-04-26T00:53:34.987Z,1.20
2019-04-26T00:56:06.784Z,2.17
2019-04-26T00:58:37.383Z,1.63
2019-04-26T01:01:07.136Z,2.83
2019-04-26T01:03:37.059Z,1.80
2019-04-26T01:06:09.133Z,1.80
2019-04-26T01:08:38.818Z,2.90
2019-04-26T01:11:08.567Z,1.80
2019-04-26T01:13:38.223Z,1.37
2019-04-26T01:16:07.974Z,2.17
2019-04-26T01:18:37.905Z,1.73
2019-04-26T01:21:10.496Z,1.40
2019-04-26T01:23:43.220Z,1.63
2019-04-26T01:26:23.178Z,3.33
2019-04-26T01:28:58.102Z,2.03
2019-04-26T01:31:30.579Z,1.50
2019-04-26T01:34:00.330Z,1.60
2019-04-26T01:36:31.432Z,2.17
2019-04-26T01:39:08.122Z,1.70
2019-04-26T01:41:46.230Z,3.23
2019-04-26T01:44:34.342Z,3.93
2019-04-26T01:47:04.170Z,2.43
2019-04-26T01:49:34.029Z,2.10
2019-04-26T01:52:08.944Z,2.23
2019-04-26T01:54:42.460Z,3.47
2019-04-26T01:57:12.978Z,1.60
2019-04-26T01:59:47.252Z,2.57
2019-04-26T02:02:27.766Z,3.67
2019-04-26T02:05:00.660Z,2.37
2019-04-26T02:07:40.969Z,1.70
2019-04-26T02:10:17.380Z,3.20
2019-04-26T02:12:49.133Z,1.87
2019-04-26T02:15:23.021Z,3.17
2019-04-26T02:17:56.445Z,3.30
2019-04-26T02:20:53.907Z,3.00
2019-04-26T02:23:35.029Z,2.37
2019-04-26T02:26:22.744Z,2.00
2019-04-26T02:28:52.421Z,4.23
2019-04-26T02:31:22.736Z,3.30
2019-04-26T02:33:52.950Z,6.33
2019-04-26T02:36:23.381Z,2.90
2019-04-26T02:38:55.897Z,2.80
2019-04-26T02:41:27.657Z,5.13
2019-04-26T02:44:00.676Z,3.43
2019-04-26T02:46:42.281Z,2.57
2019-04-26T02:49:36.603Z,3.97
2019-04-26T02:52:14.373Z,3.67
2019-04-26T02:54:52.506Z,3.00
2019-04-26T02:57:34.237Z,3.17
2019-04-26T03:00:08.131Z,2.37
2019-04-26T03:02:40.223Z,2.70
2019-04-26T03:05:10.649Z,3.13
2019-04-26T03:08:02.894Z,2.17
2019-04-26T03:10:40.260Z,4.23
2019-04-26T03:13:20.244Z,3.83
2019-04-26T03:16:10.320Z,3.13
2019-04-26T03:18:51.435Z,2.50
2019-04-26T03:21:28.875Z,2.57
2019-04-26T03:24:19.199Z,2.40
2019-04-26T03:27:16.140Z,4.60
2019-04-26T03:30:17.381Z,3.40
2019-04-26T03:32:54.219Z,1.90
2019-04-26T03:35:56.025Z,3.57
2019-04-26T03:38:41.445Z,3.07
2019-04-26T03:41:44.455Z,3.63
2019-04-26T03:44:25.783Z,2.80
2019-04-26T03:47:00.599Z,2.93
2019-04-26T03:49:54.331Z,5.23
2019-04-26T03:52:53.150Z,2.93
2019-04-26T03:56:13.727Z,3.40
2019-04-26T03:59:07.383Z,2.47
2019-04-26T04:01:47.540Z,3.73
2019-04-26T04:04:43.413Z,2.60
2019-04-26T04:07:16.254Z,4.10
2019-04-26T04:09:50.831Z,2.93
2019-04-26T04:12:27.053Z,3.33
2019-04-26T04:15:12.773Z,2.60
2019-04-26T04:17:51.199Z,8.03
2019-04-26T04:20:46.277Z,3.90
2019-04-26T04:23:27.169Z,4.43
2019-04-26T04:26:00.177Z,4.03
2019-04-26T04:28:49.889Z,2.40
2019-04-26T04:31:29.184Z,3.70
2019-04-26T04:34:23.900Z,3.03
2019-04-26T04:36:56.837Z,3.13
2019-04-26T04:39:35.271Z,4.63
2019-04-26T04:42:34.380Z,3.50
2019-04-26T04:45:21.277Z,4.20
2019-04-26T04:48:20.435Z,3.27
2019-04-26T04:51:01.241Z,4.07
2019-04-26T04:53:55.008Z,6.27
2019-04-26T04:56:55.095Z,4.57
2019-04-26T04:59:32.024Z,3.67
2019-04-26T05:02:24.069Z,3.00
2019-04-26T05:05:16.965Z,3.13
2019-04-26T05:08:08.007Z,5.97
2019-04-26T05:10:51.985Z,4.80
2019-04-26T05:13:32.484Z,3.23
2019-04-26T05:16:32.939Z,3.67
2019-04-26T05:19:42.226Z,5.00
2019-04-26T05:22:26.649Z,3.13
2019-04-26T05:25:41.007Z,4.47
2019-04-26T05:28:22.825Z,4.27
2019-04-26T05:31:14.378Z,5.77
2019-04-26T05:33:56.851Z,3.40
2019-04-26T05:36:36.639Z,4.43
2019-04-26T05:39:40.081Z,3.83
2019-04-26T05:43:00.837Z,4.47
2019-04-26T05:46:02.815Z,3.23
2019-04-26T05:48:55.655Z,2.43
2019-04-26T05:51:59.997Z,6.80
2019-04-26T05:54:54.040Z,4.23
2019-04-26T05:57:58.577Z,2.60
2019-04-26T06:01:03.778Z,4.30
2019-04-26T06:04:39.860Z,3.13
2019-04-26T06:07:32.998Z,3.93
2019-04-26T06:10:36.229Z,2.43
2019-04-26T06:13:57.754Z,3.93
2019-04-26T06:16:57.297Z,3.77
2019-04-26T06:20:24.770Z,2.60
2019-04-26T06:23:08.860Z,1.93
2019-04-26T06:26:05.949Z,2.17
2019-04-26T06:29:01.903Z,4.30
2019-04-26T06:31:40.123Z,1.90
2019-04-26T06:34:18.900Z,4.10
2019-04-26T06:37:30.158Z,4.27
2019-04-26T06:40:18.380Z,3.37
2019-04-26T06:43:15.480Z,4.00
2019-04-26T06:46:33.102Z,2.33
2019-04-26T06:49:24.331Z,2.30
2019-04-26T06:52:02.568Z,6.50
2019-04-26T06:54:44.990Z,5.20
2019-04-26T06:58:03.117Z,2.73
2019-04-26T07:00:47.614Z,2.83
2019-04-26T07:03:29.575Z,5.40
2019-04-26T07:06:02.499Z,2.47
2019-04-26T07:08:57.766Z,6.33
2019-04-26T07:12:15.173Z,4.27
2019-04-26T07:15:37.545Z,3.70
2019-04-26T07:18:55.030Z,2.03
2019-04-26T07:22:12.756Z,3.13
2019-04-26T07:25:17.853Z,2.90
2019-04-26T07:28:05.986Z,3.10
2019-04-26T07:31:06.625Z,3.00
2019-04-26T07:34:09.910Z,3.23
2019-04-26T07:37:16.635Z,2.93
2019-04-26T07:40:34.382Z,2.77
2019-04-26T07:43:35.566Z,4.17
2019-04-26T07:46:27.176Z,5.13
2019-04-26T07:49:33.392Z,4.23
2019-04-26T07:52:49.307Z,6.63
2019-04-26T07:55:37.119Z,2.57
2019-04-26T07:58:42.844Z,4.17
2019-04-26T08:01:36.437Z,4.58
2019-04-26T08:04:11.465Z,2.33
2019-04-26T08:06:54.819Z,3.50
2019-04-26T08:09:27.832Z,4.60
2019-04-26T08:12:06.087Z,3.63
2019-04-26T08:14:48.006Z,4.93
2019-04-26T08:17:36.978Z,4.33
2019-04-26T08:20:23.192Z,3.57
2019-04-26T08:22:57.722Z,4.90
2019-04-26T08:25:31.147Z,3.87
2019-04-26T08:28:03.515Z,4.43
2019-04-26T08:30:35.536Z,3.03
2019-04-26T08:33:11.323Z,3.80
2019-04-26T08:35:44.431Z,3.07
2019-04-26T08:38:20.469Z,4.37
2019-04-26T08:40:45.039Z,5.20
2019-04-26T08:43:33.871Z,4.30
2019-04-26T08:46:21.671Z,4.85
2019-04-26T08:49:11.383Z,2.10
2019-04-26T08:51:42.828Z,6.47
2019-04-26T08:54:21.239Z,2.52
2019-04-26T08:56:58.546Z,2.80
2019-04-26T08:59:31.653Z,2.35
2019-04-26T09:02:27.655Z,6.22
2019-04-26T09:05:18.417Z,2.77
2019-04-26T09:07:53.533Z,3.17
2019-04-26T09:10:25.008Z,2.37
2019-04-26T09:12:57.065Z,2.67
2019-04-26T09:16:01.198Z,6.10
2019-04-26T09:18:42.348Z,3.67
2019-04-26T09:21:03.614Z,3.55
2019-04-26T09:23:57.963Z,2.85
2019-04-26T09:26:48.455Z,2.90
2019-04-26T09:29:32.126Z,5.95
2019-04-26T09:32:09.501Z,3.02
2019-04-26T09:34:41.237Z,2.47
2019-04-26T09:37:11.164Z,3.02
2019-04-26T09:39:42.091Z,5.20
2019-04-26T09:42:21.278Z,2.47
2019-04-26T09:44:57.740Z,4.70
2019-04-26T09:47:31.637Z,5.20
2019-04-26T09:50:23.075Z,4.33
2019-04-26T09:52:52.950Z,4.03
2019-04-26T09:55:34.563Z,3.62
2019-04-26T09:57:57.101Z,4.15
2019-04-26T10:00:29.549Z,4.72
2019-04-26T10:03:00.984Z,3.92
2019-04-26T10:05:30.732Z,3.80
2019-04-26T10:08:00.399Z,4.33
2019-04-26T10:10:35.224Z,4.35
2019-04-26T10:13:21.485Z,3.20
2019-04-26T10:16:02.484Z,2.43
2019-04-26T10:18:29.992Z,3.00
2019-04-26T10:20:59.681Z,4.83
2019-04-26T10:23:29.338Z,4.42
2019-04-26T10:25:59.017Z,3.70
2019-04-26T10:28:28.692Z,4.65
2019-04-26T10:30:58.367Z,15.05
2019-04-26T10:33:28.041Z,5.53
2019-04-26T10:35:57.860Z,5.28
2019-04-26T10:38:27.818Z,5.03
2019-04-26T10:40:57.512Z,4.65
2019-04-26T10:43:29.462Z,3.55
2019-04-26T10:45:59.294Z,3.33
2019-04-26T10:48:28.972Z,8.90
2019-04-26T10:50:58.649Z,3.47
2019-04-26T10:53:50.270Z,4.55
2019-04-26T10:56:49.635Z,5.28
2019-04-26T10:59:34.602Z,5.37
2019-04-26T11:02:06.443Z,3.75
2019-04-26T11:04:37.366Z,6.55
2019-04-26T11:07:07.472Z,6.12
2019-04-26T11:09:37.263Z,2.12
2019-04-26T11:12:09.485Z,4.00
2019-04-26T11:14:39.153Z,2.20
2019-04-26T11:17:11.548Z,4.55
2019-04-26T11:19:40.570Z,3.42
2019-04-26T11:22:10.417Z,5.45
2019-04-26T11:24:40.078Z,5.08
2019-04-26T11:27:11.168Z,4.37
2019-04-26T11:29:40.967Z,6.12
2019-04-26T11:32:11.299Z,4.05
2019-04-26T11:34:42.919Z,2.42
2019-04-26T11:37:13.479Z,2.37
2019-04-26T11:39:43.722Z,3.67
2019-04-26T11:42:13.364Z,4.60
2019-04-26T11:44:44.678Z,1.72
2019-04-26T11:47:14.675Z,5.80
2019-04-26T11:49:44.346Z,4.12
2019-04-26T11:52:14.044Z,6.00
2019-04-26T11:54:43.701Z,5.22
2019-04-26T11:57:13.675Z,12.10
2019-04-26T11:59:43.441Z,10.55
2019-04-26T12:02:16.131Z,3.27
2019-04-26T12:04:56.250Z,4.15
2019-04-26T12:07:28.829Z,7.28
2019-04-26T12:10:00.176Z,4.37
2019-04-26T12:12:29.846Z,2.87
2019-04-26T12:14:59.499Z,5.30
2019-04-26T12:17:31.240Z,4.57
2019-04-26T12:20:00.550Z,8.43
2019-04-26T12:22:30.226Z,5.13
2019-04-26T12:25:03.438Z,1.73
2019-04-26T12:27:31.943Z,5.28
2019-04-26T12:30:01.810Z,6.95
2019-04-26T12:32:31.627Z,5.07
2019-04-26T12:35:02.296Z,2.57
2019-04-26T12:37:32.355Z,2.17
2019-04-26T12:40:02.020Z,3.97
2019-04-26T12:42:32.928Z,5.33
2019-04-26T12:45:18.434Z,4.33
2019-04-26T12:47:51.127Z,1.97
2019-04-26T12:50:20.790Z,3.70
2019-04-26T12:52:51.479Z,2.23
2019-04-26T12:55:22.151Z,1.90
2019-04-26T12:57:51.828Z,3.50
2019-04-26T13:00:26.432Z,3.97
2019-04-26T13:02:56.678Z,5.27
2019-04-26T13:05:26.338Z,5.77
2019-04-26T13:07:56.187Z,3.10
2019-04-26T13:10:53.801Z,4.80
2019-04-26T13:13:42.554Z,4.73
2019-04-26T13:16:21.694Z,2.50
2019-04-26T13:18:50.730Z,2.50
2019-04-26T13:21:20.386Z,2.00
2019-04-26T13:23:50.075Z,3.07
2019-04-26T13:26:19.751Z,3.27
2019-04-26T13:28:52.402Z,3.93
2019-04-26T13:31:20.799Z,4.60
2019-04-26T13:33:50.483Z,2.87
2019-04-26T13:36:20.333Z,3.00
2019-04-26T13:38:50.017Z,2.83
2019-04-26T13:41:19.792Z,2.17
2019-04-26T13:43:49.469Z,4.53
2019-04-26T13:46:43.758Z,2.60
2019-04-26T13:49:19.232Z,2.83
2019-04-26T13:51:49.163Z,4.07
2019-04-26T13:54:21.096Z,2.77
2019-04-26T13:56:50.244Z,3.20
2019-04-26T13:59:19.927Z,4.23
2019-04-26T14:01:49.614Z,4.10
2019-04-26T14:04:19.321Z,5.23
2019-04-26T14:06:48.974Z,4.00
2019-04-26T14:09:18.739Z,2.50
2019-04-26T14:11:48.462Z,3.23
2019-04-26T14:14:18.160Z,3.27
2019-04-26T14:16:48.122Z,3.57
2019-04-26T14:19:17.838Z,5.10
2019-04-26T14:21:47.573Z,4.87
2019-04-26T14:24:33.885Z,8.03
2019-04-26T14:27:10.512Z,4.07
2019-04-26T14:29:39.257Z,3.47
2019-04-26T14:32:08.917Z,5.40
2019-04-26T14:34:40.352Z,5.50
2019-04-26T14:37:11.259Z,10.67
2019-04-26T14:39:50.132Z,6.37
2019-04-26T14:42:12.695Z,13.00
2019-04-26T14:44:49.212Z,9.43
2019-04-26T14:47:17.740Z,6.67
2019-04-26T14:49:46.212Z,9.10
2019-04-26T14:52:15.876Z,4.73
2019-04-26T14:54:46.321Z,10.63
2019-04-26T14:57:24.476Z,6.90
2019-04-26T14:59:53.155Z,13.83
2019-04-26T15:02:43.039Z,10.70
2019-04-26T15:05:22.681Z,11.23
2019-04-26T15:07:53.783Z,19.67
2019-04-26T15:10:43.481Z,8.53
2019-04-26T15:13:17.336Z,11.10
2019-04-26T15:15:37.654Z,8.70
2019-04-26T15:18:07.331Z,7.53
2019-04-26T15:20:37.874Z,8.27
2019-04-26T15:23:07.613Z,8.90
2019-04-26T15:25:37.291Z,7.97
2019-04-26T15:28:11.212Z,4.73
2019-04-26T15:30:43.318Z,5.43
2019-04-26T15:33:12.654Z,7.93
2019-04-26T15:35:42.150Z,5.10
2019-04-26T15:38:11.959Z,4.60
2019-04-26T15:41:05.389Z,9.40
2019-04-26T15:44:00.700Z,7.43
2019-04-26T15:46:48.556Z,6.50
2019-04-26T15:49:26.123Z,12.17
2019-04-26T15:51:56.349Z,9.33
2019-04-26T15:54:26.886Z,7.07
2019-04-26T15:56:56.566Z,5.27
2019-04-26T15:59:26.228Z,4.90
2019-04-26T16:01:56.387Z,5.73
2019-04-26T16:04:26.260Z,5.43
2019-04-26T16:06:56.012Z,6.33
2019-04-26T16:09:25.673Z,10.40
2019-04-26T16:11:55.386Z,11.87
2019-04-26T16:14:31.380Z,7.90
2019-04-26T16:16:58.236Z,7.77
2019-04-26T16:19:27.922Z,5.40
2019-04-26T16:21:57.593Z,14.80
2019-04-26T16:24:27.981Z,8.97
2019-04-26T16:26:58.629Z,11.90
2019-04-26T16:29:38.321Z,8.43
2019-04-26T16:32:27.026Z,9.47
2019-04-26T16:34:56.705Z,11.00
2019-04-26T16:37:26.463Z,5.80
2019-04-26T16:39:56.117Z,8.67
2019-04-26T16:42:25.833Z,7.73
2019-04-26T16:44:55.495Z,4.30
2019-04-26T16:47:25.162Z,5.50
2019-04-26T16:49:54.834Z,6.83
2019-04-26T16:52:24.491Z,7.97
2019-04-26T16:55:02.392Z,5.20
2019-04-26T16:57:25.556Z,9.23
2019-04-26T16:59:59.942Z,8.97
2019-04-26T17:02:28.190Z,6.07
2019-04-26T17:05:04.547Z,6.43
2019-04-26T17:07:29.500Z,9.33
2019-04-26T17:09:59.916Z,8.33
2019-04-26T17:12:29.802Z,7.07
2019-04-26T17:14:59.455Z,6.57
2019-04-26T17:17:29.129Z,8.40
2019-04-26T17:19:58.798Z,7.40
2019-04-26T17:22:44.507Z,8.00
2019-04-26T17:25:16.980Z,9.30
2019-04-26T17:27:47.175Z,6.53
2019-04-26T17:30:21.308Z,8.30
2019-04-26T17:32:51.520Z,8.80
2019-04-26T17:35:22.416Z,8.33
2019-04-26T17:37:52.265Z,7.83
2019-04-26T17:40:25.251Z,8.43
2019-04-26T17:42:53.288Z,6.20
2019-04-26T17:45:23.023Z,9.70
2019-04-26T17:47:52.986Z,10.37
2019-04-26T17:50:22.984Z,9.47
2019-04-26T17:52:52.640Z,10.03
2019-04-26T17:55:22.397Z,9.10
2019-04-26T17:57:52.643Z,14.70
2019-04-26T18:00:27.012Z,9.30
2019-04-26T18:02:56.912Z,11.60
2019-04-26T18:05:39.928Z,11.33
2019-04-26T18:07:59.654Z,6.67
2019-04-26T18:10:30.591Z,12.37
2019-04-26T18:13:00.499Z,9.63
2019-04-26T18:15:30.151Z,9.47
2019-04-26T18:18:14.476Z,10.47
2019-04-26T18:21:05.193Z,7.30
2019-04-26T18:23:35.207Z,9.80
2019-04-26T18:26:04.963Z,8.83
2019-04-26T18:28:34.741Z,8.90
2019-04-26T18:31:06.644Z,12.27
2019-04-26T18:33:36.329Z,10.20
2019-04-26T18:36:06.002Z,9.90
2019-04-26T18:38:35.703Z,9.73
2019-04-26T18:41:06.583Z,6.80
2019-04-26T18:43:37.187Z,5.73
2019-04-26T18:46:17.874Z,7.30
2019-04-26T18:48:47.536Z,7.00
2019-04-26T18:51:17.210Z,7.80
2019-04-26T18:54:02.817Z,7.60
2019-04-26T18:56:39.557Z,6.13
2019-04-26T18:59:11.719Z,5.97
2019-04-26T19:01:41.637Z,8.00
2019-04-26T19:04:13.571Z,7.27
2019-04-26T19:06:42.497Z,6.73
2019-04-26T19:09:15.528Z,6.93
2019-04-26T19:11:48.711Z,4.03
2019-04-26T19:14:33.421Z,7.47
2019-04-26T19:17:12.304Z,5.07
2019-04-26T19:19:52.603Z,3.70
2019-04-26T19:22:22.634Z,3.27
2019-04-26T19:24:54.128Z,3.20
2019-04-26T19:27:26.545Z,3.90
2019-04-26T19:29:55.314Z,6.57
2019-04-26T19:32:25.328Z,3.80
2019-04-26T19:34:55.154Z,3.87
2019-04-26T19:37:24.832Z,1.93
2019-04-26T19:39:54.766Z,3.20
2019-04-26T19:42:27.131Z,3.03
2019-04-26T19:45:11.821Z,2.87
2019-04-26T19:47:52.083Z,2.10
2019-04-26T19:50:48.489Z,3.27
2019-04-26T19:53:24.736Z,4.13
2019-04-26T19:56:02.791Z,2.77
2019-04-26T19:58:32.931Z,6.13
2019-04-26T20:01:04.307Z,4.40
2019-04-26T20:03:34.289Z,7.00
2019-04-26T20:06:05.038Z,6.87
2019-04-26T20:08:41.742Z,5.83
2019-04-26T20:11:06.684Z,8.20
2019-04-26T20:13:36.338Z,7.53
2019-04-26T20:16:06.425Z,8.27
2019-04-26T20:18:38.937Z,5.20
2019-04-26T20:21:12.689Z,5.93
2019-04-26T20:23:43.807Z,8.53
2019-04-26T20:26:11.946Z,17.17
2019-04-26T20:28:42.353Z,11.53
2019-04-26T20:31:29.708Z,11.77
2019-04-26T20:33:59.440Z,13.47
2019-04-26T20:36:29.198Z,8.37
2019-04-26T20:38:59.110Z,10.57
2019-04-26T20:41:28.964Z,8.37
2019-04-26T20:44:07.346Z,10.63
2019-04-26T20:46:34.364Z,9.63
2019-04-26T20:49:05.929Z,13.10
2019-04-26T20:51:32.851Z,13.13
2019-04-26T20:54:03.838Z,16.90
2019-04-26T20:56:33.853Z,12.63
2019-04-26T20:59:03.751Z,14.67
2019-04-26T21:01:33.518Z,12.20
2019-04-26T21:04:03.211Z,14.93
2019-04-26T21:06:33.896Z,15.30
2019-04-26T21:09:07.397Z,14.77
2019-04-26T21:11:38.877Z,13.63
2019-04-26T21:14:08.810Z,11.50
2019-04-26T21:16:38.689Z,17.97
2019-04-26T21:19:08.364Z,13.37
2019-04-26T21:21:41.975Z,16.17
2019-04-26T21:24:14.907Z,7.40
2019-04-26T21:27:15.567Z,13.87
2019-04-26T21:30:21.190Z,19.50
2019-04-26T21:33:08.454Z,13.73
2019-04-26T21:35:44.539Z,15.97
2019-04-26T21:38:25.562Z,10.87
2019-04-26T21:41:10.946Z,15.33
2019-04-26T21:43:38.271Z,12.90
2019-04-26T21:46:08.546Z,15.20
2019-04-26T21:48:41.884Z,14.87
2019-04-26T21:51:14.439Z,15.93
2019-04-26T21:53:42.154Z,15.47
2019-04-26T21:56:13.018Z,13.07
2019-04-26T21:58:43.585Z,15.53
2019-04-26T22:01:19.411Z,14.47
2019-04-26T22:03:54.168Z,19.03
2019-04-26T22:06:25.103Z,16.03
2019-04-26T22:09:00.028Z,15.57
2019-04-26T22:11:29.038Z,14.70
2019-04-26T22:14:13.194Z,11.63
2019-04-26T22:17:02.191Z,11.97
2019-04-26T22:20:06.626Z,11.70
2019-04-26T22:22:52.824Z,10.30
2019-04-26T22:25:24.879Z,13.10
2019-04-26T22:28:00.299Z,11.20
2019-04-26T22:30:29.449Z,10.27
2019-04-26T22:32:59.238Z,13.73
2019-04-26T22:35:28.939Z,14.50
2019-04-26T22:37:58.606Z,9.60
2019-04-26T22:40:28.287Z,17.17
2019-04-26T22:43:10.900Z,9.77
2019-04-26T22:45:54.554Z,14.77
2019-04-26T22:48:35.427Z,15.13
2019-04-26T22:51:06.173Z,12.47
2019-04-26T22:53:35.842Z,18.40
2019-04-26T22:56:05.593Z,17.00
2019-04-26T22:58:35.278Z,18.40
2019-04-26T23:01:06.247Z,17.00
2019-04-26T23:03:40.897Z,24.03
2019-04-26T23:06:11.628Z,17.27
2019-04-26T23:08:39.670Z,18.10
2019-04-26T23:11:10.728Z,23.67
2019-04-26T23:13:55.712Z,20.33
2019-04-26T23:16:35.891Z,18.57
2019-04-26T23:19:27.411Z,20.73
2019-04-26T23:21:57.876Z,29.93
2019-04-26T23:24:27.700Z,20.50
2019-04-26T23:26:57.365Z,21.43
2019-04-26T23:29:27.065Z,24.07
2019-04-26T23:31:56.743Z,22.43
2019-04-26T23:34:26.433Z,23.00
2019-04-26T23:36:56.094Z,21.23
2019-04-26T23:39:25.770Z,20.80
2019-04-26T23:41:55.506Z,25.30
2019-04-26T23:44:25.191Z,19.13
2019-04-26T23:47:01.200Z,20.60
2019-04-26T23:49:27.198Z,19.37
2019-04-26T23:51:56.854Z,23.00
2019-04-26T23:54:28.089Z,16.87
2019-04-26T23:56:58.921Z,21.37
2019-04-26T23:59:28.751Z,21.00
